Terminal Aerodrome Forecast
Issued by NWS Memphis, TN

Home | Current Version | Previous Version | Text Only | Print | Product List | Glossary On
Versions: 1 2 3 4 5 6 7 8 9 10 11 12 13 14 15 16 17 18
000
FTUS44 KMEG 200122 AAA
TAFJBR
TAF AMD
KJBR 200122Z 2001/2024 23006KT P6SM VCSH SCT009 OVC080
      TEMPO 2002/2004 6SM -SHRA BR BKN009
     FM200400 23006KT 4SM BR VCSH BKN005 OVC012
      TEMPO 2007/2011 3/4SM -DZ BR VV002
     FM201600 19009KT P6SM VCSH BKN009 OVC015
     FM201900 19012G18KT P6SM BKN025 BKN150=

USA.gov is the U.S. government's official web portal to all federal, state and local government web resources and services.